createdAt,value
2019-01-08T00:02:27.811Z,9.00
2019-01-08T00:04:56.477Z,9.18
2019-01-08T00:07:25.172Z,9.33
2019-01-08T00:09:53.683Z,9.28
2019-01-08T00:12:22.142Z,9.04
2019-01-08T00:14:52.249Z,8.84
2019-01-08T00:17:20.870Z,8.69
2019-01-08T00:19:50.043Z,8.74
2019-01-08T00:22:18.548Z,8.69
2019-01-08T00:24:47.161Z,8.50
2019-01-08T00:27:15.771Z,8.50
2019-01-08T00:29:44.407Z,8.64
2019-01-08T00:32:12.824Z,8.68
2019-01-08T00:34:41.378Z,8.69
2019-01-08T00:37:10.066Z,8.75
2019-01-08T00:39:38.549Z,8.82
2019-01-08T00:42:07.065Z,9.00
2019-01-08T00:44:35.763Z,9.32
2019-01-08T00:47:04.333Z,9.09
2019-01-08T00:49:32.963Z,8.79
2019-01-08T00:52:01.578Z,8.54
2019-01-08T00:54:30.194Z,8.34
2019-01-08T00:56:58.800Z,8.26
2019-01-08T00:59:27.339Z,8.11
2019-01-08T01:01:55.925Z,7.95
2019-01-08T01:04:24.564Z,7.89
2019-01-08T01:06:53.246Z,8.04
2019-01-08T01:09:21.879Z,7.94
2019-01-08T01:11:50.633Z,7.94
2019-01-08T01:14:19.161Z,8.17
2019-01-08T01:16:47.689Z,8.38
2019-01-08T01:19:16.289Z,8.75
2019-01-08T01:21:44.878Z,8.74
2019-01-08T01:24:13.433Z,8.41
2019-01-08T01:26:42.138Z,8.08
2019-01-08T01:29:10.609Z,7.78
2019-01-08T01:31:39.153Z,7.78
2019-01-08T01:34:07.758Z,7.72
2019-01-08T01:36:36.448Z,7.76
2019-01-08T01:39:06.440Z,7.62
2019-01-08T01:41:35.053Z,7.63
2019-01-08T01:44:03.624Z,7.53
2019-01-08T01:46:32.156Z,7.56
2019-01-08T01:49:00.776Z,7.60
2019-01-08T01:51:29.417Z,7.70
2019-01-08T01:53:57.962Z,7.81
2019-01-08T01:56:26.531Z,8.11
2019-01-08T01:58:55.059Z,7.82
2019-01-08T02:01:23.680Z,7.43
2019-01-08T02:03:52.270Z,7.22
2019-01-08T02:06:21.331Z,7.26
2019-01-08T02:08:49.961Z,7.17
2019-01-08T02:11:18.518Z,7.18
2019-01-08T02:13:47.071Z,7.23
2019-01-08T02:16:15.650Z,7.41
2019-01-08T02:18:44.351Z,7.51
2019-01-08T02:21:12.978Z,7.44
2019-01-08T02:23:41.485Z,7.41
2019-01-08T02:26:10.002Z,7.45
2019-01-08T02:28:38.564Z,7.67
2019-01-08T02:31:07.113Z,7.98
2019-01-08T02:33:35.731Z,7.91
2019-01-08T02:36:04.403Z,7.62
2019-01-08T02:38:33.017Z,7.41
2019-01-08T02:41:01.538Z,7.33
2019-01-08T02:43:30.057Z,7.34
2019-01-08T02:45:58.622Z,7.30
2019-01-08T02:48:27.138Z,7.11
2019-01-08T02:50:55.776Z,7.06
2019-01-08T02:53:24.327Z,7.11
2019-01-08T02:55:52.954Z,7.23
2019-01-08T02:58:22.077Z,7.28
2019-01-08T03:00:50.890Z,7.27
2019-01-08T03:03:19.378Z,7.38
2019-01-08T03:05:47.883Z,7.67
2019-01-08T03:08:16.389Z,7.68
2019-01-08T03:10:44.932Z,7.42
2019-01-08T03:13:13.486Z,7.06
2019-01-08T03:15:42.007Z,7.02
2019-01-08T03:18:10.564Z,6.98
2019-01-08T03:20:39.172Z,6.96
2019-01-08T03:23:07.865Z,6.75
2019-01-08T03:25:36.415Z,6.67
2019-01-08T03:28:05.093Z,6.76
2019-01-08T03:30:33.627Z,6.78
2019-01-08T03:33:02.156Z,6.82
2019-01-08T03:35:30.704Z,6.84
2019-01-08T03:37:59.418Z,6.93
2019-01-08T03:40:27.947Z,7.10
2019-01-08T03:42:56.475Z,7.36
2019-01-08T03:45:24.989Z,7.29
2019-01-08T03:47:53.583Z,7.13
2019-01-08T03:50:23.040Z,7.01
2019-01-08T03:52:51.558Z,6.94
2019-01-08T03:55:20.177Z,6.89
2019-01-08T03:57:48.684Z,6.87
2019-01-08T04:00:17.273Z,6.90
2019-01-08T04:02:45.750Z,7.04
2019-01-08T04:05:14.248Z,6.99
2019-01-08T04:07:42.870Z,7.01
2019-01-08T04:10:11.409Z,7.08
2019-01-08T04:12:39.938Z,7.24
2019-01-08T04:15:08.525Z,7.38
2019-01-08T04:17:37.065Z,7.71
2019-01-08T04:20:05.857Z,7.61
2019-01-08T04:22:34.389Z,7.50
2019-01-08T04:25:02.983Z,7.42
2019-01-08T04:27:31.663Z,7.26
2019-01-08T04:30:00.368Z,7.07
2019-01-08T04:32:28.974Z,6.99
2019-01-08T04:34:57.524Z,7.04
2019-01-08T04:37:26.107Z,7.03
2019-01-08T04:39:54.702Z,7.04
2019-01-08T04:42:23.494Z,7.12
2019-01-08T04:44:51.996Z,7.26
2019-01-08T04:47:20.622Z,7.37
2019-01-08T04:49:49.160Z,7.41
2019-01-08T04:52:17.679Z,7.64
2019-01-08T04:54:46.311Z,7.70
2019-01-08T04:57:14.906Z,7.58
2019-01-08T04:59:43.438Z,7.49
2019-01-08T05:02:11.996Z,7.37
2019-01-08T05:04:40.501Z,7.16
2019-01-08T05:07:09.032Z,7.18
2019-01-08T05:09:37.509Z,7.13
2019-01-08T05:12:05.952Z,7.24
2019-01-08T05:14:34.447Z,7.33
2019-01-08T05:17:03.041Z,7.23
2019-01-08T05:19:31.564Z,7.35
2019-01-08T05:22:00.110Z,7.42
2019-01-08T05:24:28.652Z,7.48
2019-01-08T05:26:57.270Z,7.71
2019-01-08T05:29:25.827Z,7.94
2019-01-08T05:31:54.278Z,7.71
2019-01-08T05:34:22.861Z,7.40
2019-01-08T05:36:51.318Z,7.28
2019-01-08T05:39:19.818Z,7.17
2019-01-08T05:41:48.321Z,6.97
2019-01-08T05:44:16.950Z,6.92
2019-01-08T05:46:45.407Z,7.02
2019-01-08T05:49:13.932Z,6.94
2019-01-08T05:51:42.561Z,6.80
2019-01-08T05:54:11.180Z,6.71
2019-01-08T05:56:39.704Z,6.80
2019-01-08T05:59:08.257Z,6.98
2019-01-08T06:01:36.985Z,7.22
2019-01-08T06:04:05.543Z,7.53
2019-01-08T06:06:34.193Z,7.48
2019-01-08T06:09:02.796Z,7.23
2019-01-08T06:11:31.411Z,7.15
2019-01-08T06:13:59.870Z,6.95
2019-01-08T06:16:28.438Z,6.76
2019-01-08T06:18:57.090Z,6.71
2019-01-08T06:21:25.540Z,6.59
2019-01-08T06:23:55.197Z,6.71
2019-01-08T06:26:23.628Z,6.69
2019-01-08T06:28:52.195Z,6.78
2019-01-08T06:31:22.631Z,6.83
2019-01-08T06:33:51.043Z,6.76
2019-01-08T06:36:19.599Z,6.91
2019-01-08T06:38:48.030Z,7.38
2019-01-08T06:41:16.660Z,7.45
2019-01-08T06:43:45.236Z,7.16
2019-01-08T06:46:13.771Z,6.86
2019-01-08T06:48:42.279Z,6.63
2019-01-08T06:51:10.837Z,6.41
2019-01-08T06:53:39.367Z,6.35
2019-01-08T06:56:07.884Z,6.38
2019-01-08T06:58:36.552Z,6.50
2019-01-08T07:01:05.133Z,6.55
2019-01-08T07:03:33.765Z,6.65
2019-01-08T07:06:02.397Z,6.77
2019-01-08T07:08:30.963Z,6.79
2019-01-08T07:10:59.545Z,6.98
2019-01-08T07:13:28.071Z,7.15
2019-01-08T07:15:56.687Z,7.38
2019-01-08T07:18:25.729Z,7.19
2019-01-08T07:20:54.691Z,6.93
2019-01-08T07:23:23.345Z,6.81
2019-01-08T07:25:51.859Z,6.64
2019-01-08T07:28:20.495Z,6.62
2019-01-08T07:30:49.172Z,6.66
2019-01-08T07:33:17.775Z,6.75
2019-01-08T07:35:46.370Z,6.78
2019-01-08T07:38:15.026Z,6.79
2019-01-08T07:40:43.613Z,6.93
2019-01-08T07:43:12.167Z,6.96
2019-01-08T07:45:40.682Z,6.96
2019-01-08T07:48:09.246Z,7.05
2019-01-08T07:50:37.822Z,7.41
2019-01-08T07:53:06.412Z,7.37
2019-01-08T07:55:35.052Z,7.08
2019-01-08T07:58:03.707Z,6.87
2019-01-08T08:00:32.182Z,6.72
2019-01-08T08:03:00.764Z,6.64
2019-01-08T08:05:29.299Z,6.65
2019-01-08T08:07:57.868Z,6.65
2019-01-08T08:10:26.429Z,6.68
2019-01-08T08:12:54.955Z,6.83
2019-01-08T08:15:23.551Z,6.91
2019-01-08T08:17:52.139Z,7.02
2019-01-08T08:20:20.672Z,6.96
2019-01-08T08:22:49.295Z,7.13
2019-01-08T08:25:17.848Z,7.51
2019-01-08T08:27:46.454Z,7.63
2019-01-08T08:30:15.225Z,7.38
2019-01-08T08:32:43.727Z,7.25
2019-01-08T08:35:12.617Z,7.00
2019-01-08T08:37:41.231Z,6.82
2019-01-08T08:40:09.798Z,6.77
2019-01-08T08:42:38.382Z,6.86
2019-01-08T08:45:08.592Z,6.94
2019-01-08T08:47:37.267Z,6.89
2019-01-08T08:50:07.047Z,6.96
2019-01-08T08:52:35.608Z,6.97
2019-01-08T08:55:04.430Z,7.07
2019-01-08T08:57:32.966Z,7.20
2019-01-08T09:00:01.607Z,7.36
2019-01-08T09:02:30.275Z,7.66
2019-01-08T09:04:58.902Z,7.49
2019-01-08T09:07:27.461Z,7.26
2019-01-08T09:09:57.045Z,7.12
2019-01-08T09:12:25.756Z,7.08
2019-01-08T09:14:54.278Z,7.06
2019-01-08T09:17:22.847Z,7.14
2019-01-08T09:19:51.387Z,7.13
2019-01-08T09:22:19.836Z,7.21
2019-01-08T09:24:48.372Z,7.28
2019-01-08T09:27:16.893Z,7.26
2019-01-08T09:29:45.547Z,7.23
2019-01-08T09:32:14.223Z,7.24
2019-01-08T09:34:42.675Z,7.36
2019-01-08T09:37:11.300Z,7.83
2019-01-08T09:39:39.813Z,7.82
2019-01-08T09:42:08.466Z,7.56
2019-01-08T09:44:37.102Z,7.52
2019-01-08T09:47:05.717Z,7.38
2019-01-08T09:49:34.327Z,7.30
2019-01-08T09:52:02.911Z,7.22
2019-01-08T09:54:31.501Z,7.28
2019-01-08T09:57:00.045Z,7.33
2019-01-08T09:59:28.685Z,7.32
2019-01-08T10:01:57.529Z,7.36
2019-01-08T10:04:26.068Z,7.38
2019-01-08T10:06:54.698Z,7.53
2019-01-08T10:09:23.385Z,7.70
2019-01-08T10:11:51.972Z,8.02
2019-01-08T10:14:20.614Z,8.18
2019-01-08T10:16:49.224Z,8.05
2019-01-08T10:19:17.813Z,7.82
2019-01-08T10:21:46.426Z,7.58
2019-01-08T10:24:14.987Z,7.39
2019-01-08T10:26:43.670Z,7.28
2019-01-08T10:29:12.164Z,7.30
2019-01-08T10:31:40.717Z,7.37
2019-01-08T10:34:09.320Z,7.44
2019-01-08T10:36:37.834Z,7.39
2019-01-08T10:39:07.429Z,7.53
2019-01-08T10:41:36.047Z,7.52
2019-01-08T10:44:04.698Z,7.63
2019-01-08T10:46:37.447Z,7.88
2019-01-08T10:49:03.439Z,8.25
2019-01-08T10:51:31.934Z,8.13
2019-01-08T10:54:00.424Z,7.80
2019-01-08T10:56:29.052Z,7.55
2019-01-08T10:58:58.052Z,7.33
2019-01-08T11:01:26.608Z,7.34
2019-01-08T11:03:55.167Z,7.29
2019-01-08T11:06:23.699Z,7.29
2019-01-08T11:08:52.327Z,7.29
2019-01-08T11:11:20.953Z,7.42
2019-01-08T11:13:49.629Z,7.55
2019-01-08T11:16:18.242Z,7.64
2019-01-08T11:18:47.839Z,7.68
2019-01-08T11:21:16.377Z,7.90
2019-01-08T11:23:44.900Z,8.18
2019-01-08T11:26:13.450Z,8.20
2019-01-08T11:28:43.172Z,8.21
2019-01-08T11:31:11.936Z,8.14
2019-01-08T11:33:40.619Z,8.07
2019-01-08T11:36:09.140Z,8.08
2019-01-08T11:38:37.687Z,7.94
2019-01-08T11:41:06.290Z,7.94
2019-01-08T11:43:34.844Z,7.87
2019-01-08T11:46:03.426Z,7.84
2019-01-08T11:48:32.033Z,7.84
2019-01-08T11:51:00.705Z,7.90
2019-01-08T11:53:29.338Z,8.04
2019-01-08T11:55:59.076Z,8.15
2019-01-08T11:58:28.735Z,8.33
2019-01-08T12:00:57.335Z,8.60
2019-01-08T12:03:26.032Z,8.33
2019-01-08T12:05:54.588Z,8.21
2019-01-08T12:08:23.192Z,8.00
2019-01-08T12:10:51.751Z,7.96
2019-01-08T12:13:20.370Z,7.81
2019-01-08T12:15:49.025Z,7.79
2019-01-08T12:18:17.591Z,7.82
2019-01-08T12:20:46.181Z,8.00
2019-01-08T12:23:14.759Z,8.16
2019-01-08T12:25:43.300Z,8.33
2019-01-08T12:28:11.878Z,8.45
2019-01-08T12:30:40.506Z,8.59
2019-01-08T12:33:09.035Z,8.87
2019-01-08T12:35:37.560Z,9.19
2019-01-08T12:38:06.201Z,9.10
2019-01-08T12:40:34.716Z,8.86
2019-01-08T12:43:03.236Z,8.80
2019-01-08T12:45:31.738Z,8.78
2019-01-08T12:48:00.261Z,8.82
2019-01-08T12:50:29.369Z,8.83
2019-01-08T12:52:57.961Z,8.76
2019-01-08T12:55:26.590Z,8.80
2019-01-08T12:57:55.192Z,8.70
2019-01-08T13:00:23.834Z,8.81
2019-01-08T13:02:52.356Z,8.85
2019-01-08T13:05:20.990Z,8.80
2019-01-08T13:07:49.538Z,8.82
2019-01-08T13:11:13.602Z,8.85
2019-01-08T13:13:42.121Z,8.49
2019-01-08T13:16:10.733Z,7.87
2019-01-08T13:18:39.276Z,7.66
2019-01-08T13:21:07.879Z,7.60
2019-01-08T13:23:36.329Z,7.61
2019-01-08T13:26:04.961Z,7.59
2019-01-08T13:28:33.581Z,7.64
2019-01-08T13:31:02.149Z,7.83
2019-01-08T13:33:30.602Z,8.01
2019-01-08T13:35:59.168Z,8.22
2019-01-08T13:38:27.750Z,8.51
2019-01-08T13:40:56.862Z,8.61
2019-01-08T13:43:25.390Z,8.63
2019-01-08T13:45:53.958Z,8.82
2019-01-08T13:48:22.581Z,8.63
2019-01-08T13:50:51.218Z,8.36
2019-01-08T13:53:19.810Z,8.12
2019-01-08T13:55:48.342Z,7.93
2019-01-08T13:58:17.049Z,7.71
2019-01-08T14:00:45.609Z,7.54
2019-01-08T14:03:14.126Z,7.54
2019-01-08T14:05:43.341Z,7.59
2019-01-08T14:08:11.985Z,7.66
2019-01-08T14:10:40.502Z,7.66
2019-01-08T14:13:08.969Z,7.80
2019-01-08T14:15:37.620Z,7.99
2019-01-08T14:18:06.230Z,8.16
2019-01-08T14:20:34.844Z,8.27
2019-01-08T14:23:03.353Z,8.37
2019-01-08T14:25:31.944Z,8.18
2019-01-08T14:28:00.595Z,7.98
2019-01-08T14:30:29.550Z,7.72
2019-01-08T14:32:58.202Z,7.51
2019-01-08T14:35:26.767Z,7.43
2019-01-08T14:37:55.319Z,7.37
2019-01-08T14:40:23.865Z,7.47
2019-01-08T14:42:52.585Z,7.41
2019-01-08T14:45:21.188Z,7.41
2019-01-08T14:47:49.824Z,7.47
2019-01-08T14:50:18.505Z,7.47
2019-01-08T14:52:47.062Z,7.63
2019-01-08T14:55:15.664Z,7.84
2019-01-08T14:57:44.251Z,7.99
2019-01-08T15:00:13.075Z,7.81
2019-01-08T15:02:49.206Z,7.65
2019-01-08T15:05:11.965Z,7.59
2019-01-08T15:07:40.535Z,7.48
2019-01-08T15:10:09.330Z,7.35
2019-01-08T15:12:37.944Z,7.29
2019-01-08T15:15:06.993Z,7.38
2019-01-08T15:17:35.572Z,7.37
2019-01-08T15:20:05.151Z,7.38
2019-01-08T15:22:33.844Z,7.32
2019-01-08T15:25:02.480Z,7.40
2019-01-08T15:27:31.068Z,7.52
2019-01-08T15:30:00.170Z,7.78
2019-01-08T15:32:28.818Z,8.04
2019-01-08T15:34:57.433Z,8.07
2019-01-08T15:37:26.009Z,7.93
2019-01-08T15:39:54.614Z,7.81
2019-01-08T15:42:23.195Z,7.76
2019-01-08T15:44:51.836Z,7.74
2019-01-08T15:47:20.356Z,7.53
2019-01-08T15:49:48.973Z,7.58
2019-01-08T15:52:17.526Z,7.63
2019-01-08T15:54:46.159Z,7.65
2019-01-08T15:57:14.591Z,7.68
2019-01-08T15:59:43.210Z,7.72
2019-01-08T16:02:11.855Z,7.77
2019-01-08T16:04:40.480Z,7.80
2019-01-08T16:07:09.069Z,7.86
2019-01-08T16:09:37.699Z,7.89
2019-01-08T16:12:06.294Z,7.78
2019-01-08T16:14:34.911Z,7.52
2019-01-08T16:17:03.533Z,7.40
2019-01-08T16:19:32.134Z,7.47
2019-01-08T16:22:00.869Z,7.23
2019-01-08T16:24:29.499Z,7.08
2019-01-08T16:26:58.094Z,7.24
2019-01-08T16:29:26.732Z,7.31
2019-01-08T16:31:55.500Z,7.33
2019-01-08T16:34:24.156Z,7.31
2019-01-08T16:36:52.652Z,7.37
2019-01-08T16:39:21.323Z,7.44
2019-01-08T16:41:50.108Z,7.58
2019-01-08T16:44:18.740Z,7.85
2019-01-08T16:46:47.441Z,7.74
2019-01-08T16:49:16.140Z,7.54
2019-01-08T16:51:44.662Z,7.41
2019-01-08T16:54:13.237Z,7.32
2019-01-08T16:56:41.818Z,7.44
2019-01-08T16:59:10.399Z,7.50
2019-01-08T17:01:38.977Z,7.40
2019-01-08T17:04:07.602Z,7.42
2019-01-08T17:06:36.216Z,7.40
2019-01-08T17:09:06.215Z,7.31
2019-01-08T17:11:34.731Z,7.35
2019-01-08T17:14:03.405Z,7.35
2019-01-08T17:16:31.943Z,7.56
2019-01-08T17:19:01.745Z,7.72
2019-01-08T17:21:30.440Z,7.71
2019-01-08T17:23:59.029Z,7.56
2019-01-08T17:26:27.746Z,7.40
2019-01-08T17:28:56.295Z,7.35
2019-01-08T17:31:24.962Z,7.15
2019-01-08T17:33:53.582Z,7.09
2019-01-08T17:36:22.285Z,6.97
2019-01-08T17:38:50.829Z,6.63
2019-01-08T17:41:19.455Z,6.66
2019-01-08T17:43:48.167Z,6.57
2019-01-08T17:46:16.774Z,6.58
2019-01-08T17:48:45.357Z,6.47
2019-01-08T17:51:14.073Z,6.51
2019-01-08T17:53:42.887Z,6.65
2019-01-08T17:56:11.493Z,6.85
2019-01-08T17:58:42.172Z,6.73
2019-01-08T18:01:17.449Z,6.60
2019-01-08T18:03:47.074Z,6.41
2019-01-08T18:06:15.739Z,6.37
2019-01-08T18:08:44.291Z,6.27
2019-01-08T18:11:12.949Z,6.41
2019-01-08T18:13:41.524Z,6.51
2019-01-08T18:16:10.135Z,6.51
2019-01-08T18:18:38.746Z,6.55
2019-01-08T18:21:07.369Z,6.71
2019-01-08T18:23:35.882Z,6.73
2019-01-08T18:26:04.514Z,6.80
2019-01-08T18:28:33.099Z,6.97
2019-01-08T18:31:02.824Z,7.20
2019-01-08T18:33:31.457Z,7.26
2019-01-08T18:36:00.091Z,7.07
2019-01-08T18:38:28.803Z,6.85
2019-01-08T18:40:57.518Z,6.69
2019-01-08T18:43:26.164Z,6.66
2019-01-08T18:45:54.683Z,6.52
2019-01-08T18:48:23.598Z,6.57
2019-01-08T18:50:52.176Z,6.74
2019-01-08T18:53:20.815Z,6.81
2019-01-08T18:55:49.453Z,6.80
2019-01-08T18:58:18.052Z,6.95
2019-01-08T19:00:46.654Z,6.87
2019-01-08T19:03:15.265Z,6.79
2019-01-08T19:05:43.792Z,6.94
2019-01-08T19:08:12.401Z,6.89
2019-01-08T19:10:41.016Z,6.47
2019-01-08T19:13:09.689Z,6.47
2019-01-08T19:15:38.352Z,6.23
2019-01-08T19:18:06.944Z,6.11
2019-01-08T19:20:35.516Z,6.06
2019-01-08T19:23:04.229Z,6.08
2019-01-08T19:25:33.634Z,6.02
2019-01-08T19:28:02.218Z,6.08
2019-01-08T19:30:30.901Z,6.28
2019-01-08T19:32:59.552Z,6.26
2019-01-08T19:35:31.740Z,6.29
2019-01-08T19:37:58.474Z,6.37
2019-01-08T19:40:27.211Z,6.66
2019-01-08T19:42:55.855Z,6.98
2019-01-08T19:45:24.534Z,7.04
2019-01-08T19:47:53.204Z,6.96
2019-01-08T19:50:21.832Z,6.54
2019-01-08T19:52:50.534Z,6.54
2019-01-08T19:55:19.128Z,6.72
2019-01-08T19:57:47.759Z,6.73
2019-01-08T20:00:16.390Z,6.81
2019-01-08T20:02:45.117Z,6.83
2019-01-08T20:05:13.686Z,7.05
2019-01-08T20:07:42.461Z,6.89
2019-01-08T20:10:11.167Z,6.97
2019-01-08T20:12:39.673Z,7.08
2019-01-08T20:15:08.999Z,7.15
2019-01-08T20:17:37.590Z,7.35
2019-01-08T20:20:07.175Z,7.16
2019-01-08T20:22:35.738Z,7.15
2019-01-08T20:25:04.923Z,7.03
2019-01-08T20:27:34.539Z,6.94
2019-01-08T20:30:03.239Z,6.76
2019-01-08T20:32:31.839Z,6.65
2019-01-08T20:35:00.415Z,6.75
2019-01-08T20:37:29.066Z,6.76
2019-01-08T20:39:57.546Z,6.74
2019-01-08T20:42:26.265Z,6.59
2019-01-08T20:44:54.905Z,6.61
2019-01-08T20:47:23.534Z,6.59
2019-01-08T20:49:52.233Z,6.76
2019-01-08T20:52:20.913Z,6.91
2019-01-08T20:58:55.554Z,6.87
2019-01-08T21:01:24.231Z,6.59
2019-01-08T21:03:52.782Z,6.49
2019-01-08T21:06:21.346Z,6.50
2019-01-08T21:08:49.993Z,6.40
2019-01-08T21:11:18.515Z,6.46
2019-01-08T21:13:46.993Z,6.42
2019-01-08T21:16:15.541Z,6.56
2019-01-08T21:18:44.075Z,6.60
2019-01-08T21:21:12.620Z,6.66
2019-01-08T21:23:41.088Z,6.69
2019-01-08T21:26:09.758Z,6.90
2019-01-08T21:28:38.259Z,7.01
2019-01-08T21:31:06.824Z,7.02
2019-01-08T21:33:35.908Z,6.83
2019-01-08T21:36:04.480Z,6.60
2019-01-08T21:38:33.115Z,6.51
2019-01-08T21:41:36.014Z,6.41
2019-01-08T21:44:04.624Z,6.35
2019-01-08T21:46:33.258Z,6.40
2019-01-08T21:49:01.827Z,6.34
2019-01-08T21:51:30.415Z,6.15
2019-01-08T21:53:58.909Z,6.27
2019-01-08T21:56:27.556Z,6.26
2019-01-08T21:58:56.083Z,6.12
2019-01-08T22:01:25.144Z,6.27
2019-01-08T22:03:53.708Z,6.46
2019-01-08T22:13:36.891Z,6.14
2019-01-08T22:16:05.427Z,6.09
2019-01-08T22:18:33.988Z,5.94
2019-01-08T22:21:02.634Z,5.80
2019-01-08T22:23:31.064Z,5.79
2019-01-08T22:25:59.568Z,5.95
2019-01-08T22:28:28.084Z,6.05
2019-01-08T22:30:57.334Z,6.09
2019-01-08T22:33:25.969Z,6.08
2019-01-08T22:35:54.510Z,6.15
2019-01-08T22:38:22.993Z,6.39
2019-01-08T22:40:52.480Z,6.59
2019-01-08T22:43:21.119Z,6.60
2019-01-08T22:45:50.248Z,6.28
2019-01-08T22:48:19.029Z,6.02
2019-01-08T22:50:47.645Z,6.07
2019-01-08T22:53:16.168Z,5.92
2019-01-08T22:55:44.734Z,5.87
2019-01-08T22:58:13.294Z,6.06
2019-01-08T23:00:50.164Z,5.90
2019-01-08T23:03:18.873Z,5.74
2019-01-08T23:05:47.695Z,5.76
2019-01-08T23:08:16.983Z,5.76
2019-01-08T23:10:45.829Z,5.77
2019-01-08T23:13:15.242Z,5.75
2019-01-08T23:15:43.831Z,5.96
2019-01-08T23:18:12.279Z,6.18
2019-01-08T23:20:40.698Z,6.07
2019-01-08T23:23:09.296Z,5.84
2019-01-08T23:25:37.787Z,5.78
2019-01-08T23:28:06.416Z,5.66
2019-01-08T23:30:34.995Z,5.60
2019-01-08T23:33:03.547Z,5.54
2019-01-08T23:35:32.117Z,5.61
2019-01-08T23:38:00.734Z,5.64
2019-01-08T23:40:29.618Z,5.76
2019-01-08T23:42:58.248Z,5.58
2019-01-08T23:45:26.774Z,5.75
2019-01-08T23:47:55.344Z,5.85
2019-01-08T23:50:23.937Z,5.95
2019-01-08T23:53:09.593Z,6.33
2019-01-08T23:55:43.938Z,6.15
2019-01-08T23:58:15.438Z,5.94
